^^
Meteo Knjazevac Station Historical Data
Daily Summary for December 17, 2021 Units:  Both    English   Metric
Daily Weekly Monthly Yearly Custom
  High: Low: Average:
Temperature: 40.6 °F /  4.8 °C 37.4 °F /  3 °C 38.3 °F /  3.5 °C
Dew Point: 39.5 °F /  4.2 °C 36.5 °F /  2.5 °C 37.7 °F /  3.2 °C
Humidity: 99% 94% 98%
Wind Speed: 9mph /  14.5km/h - 2mph /  3.2km/h
Wind Gust: 14mph /  22.5km/h - -
Wind- - SSW
Pressure: 30.35 in /  1027.7 hPa 30.28 in /  1025.3 hPa -
Precipitation: 0.08 in /  2.03 mm    
Historical Graphs
 
 
Tabular Data for December 17, 2021
Time Temperature Dew Point Pressure Wind Wind Speed Wind Gust Humidity Rainfall Rate (Hourly) solar Conditions
00:00 37.8 °F /  3.2 °C 36.5 °F /  2.5 °C 30.35in /  1027.7hPa SW 1mph /  1.6km/h 4mph /  6.4km/h 95% 0.00in /  0mm 0 W/m2
00:10 37.8 °F /  3.2 °C 36.5 °F /  2.5 °C 30.34in /  1027.3hPa SW 1mph /  1.6km/h 3mph /  4.8km/h 95% 0.00in /  0mm 0 W/m2
00:20 37.9 °F /  3.3 °C 36.5 °F /  2.5 °C 30.34in /  1027.3hPa SW 2mph /  3.2km/h 3mph /  4.8km/h 95% 0.00in /  0mm 0 W/m2
00:30 37.9 °F /  3.3 °C 36.6 °F /  2.6 °C 30.34in /  1027.3hPa WSW 1mph /  1.6km/h 3mph /  4.8km/h 95% 0.00in /  0mm 0 W/m2
00:40 37.9 °F /  3.3 °C 36.6 °F /  2.6 °C 30.34in /  1027.3hPa WSW 1mph /  1.6km/h 3mph /  4.8km/h 95% 0.00in /  0mm 0 W/m2
00:50 38.1 °F /  3.4 °C 36.8 °F /  2.7 °C 30.33in /  1027hPa North 1mph /  1.6km/h 3mph /  4.8km/h 95% 0.00in /  0mm 0 W/m2
01:00 38.1 °F /  3.4 °C 36.5 °F /  2.5 °C 30.34in /  1027.3hPa SSE 1mph /  1.6km/h 4mph /  6.4km/h 94% 0.00in /  0mm 0 W/m2
01:10 38.3 °F /  3.5 °C 36.7 °F /  2.6 °C 30.33in /  1027hPa NE 1mph /  1.6km/h 5mph /  8km/h 94% 0.00in /  0mm 0 W/m2
01:20 38.3 °F /  3.5 °C 37 °F /  2.8 °C 30.33in /  1027hPa West 2mph /  3.2km/h 3mph /  4.8km/h 95% 0.00in /  0mm 0 W/m2
01:30 38.3 °F /  3.5 °C 37 °F /  2.8 °C 30.33in /  1027hPa South 1mph /  1.6km/h 3mph /  4.8km/h 95% 0.00in /  0mm 0 W/m2
01:40 38.5 °F /  3.6 °C 37.2 °F /  2.9 °C 30.33in /  1027hPa West 1mph /  1.6km/h 3mph /  4.8km/h 95% 0.00in /  0mm 0 W/m2
01:50 38.5 °F /  3.6 °C 37.2 °F /  2.9 °C 30.33in /  1027hPa WSW 1mph /  1.6km/h 5mph /  8km/h 95% 0.00in /  0mm 0 W/m2
02:00 38.5 °F /  3.6 °C 37.2 °F /  2.9 °C 30.34in /  1027.3hPa West 1mph /  1.6km/h 4mph /  6.4km/h 95% 0.00in /  0mm 0 W/m2
02:10 38.5 °F /  3.6 °C 37.4 °F /  3 °C 30.34in /  1027.3hPa Calm   2mph /  3.2km/h 96% 0.00in /  0mm 0 W/m2
02:20 38.5 °F /  3.6 °C 37.4 °F /  3 °C 30.33in /  1027hPa West 1mph /  1.6km/h 3mph /  4.8km/h 96% 0.01in /  0.25mm 0 W/m2
02:30 38.5 °F /  3.6 °C 38 °F /  3.3 °C 30.33in /  1027hPa SW 3mph /  4.8km/h 6mph /  9.7km/h 98% 0.01in /  0.25mm 0 W/m2
02:40 38.5 °F /  3.6 °C 38 °F /  3.3 °C 30.33in /  1027hPa WSW 3mph /  4.8km/h 8mph /  12.9km/h 98% 0.00in /  0mm 0 W/m2
02:50 38.5 °F /  3.6 °C 38 °F /  3.3 °C 30.33in /  1027hPa WSW 1mph /  1.6km/h 5mph /  8km/h 98% 0.00in /  0mm 0 W/m2
03:00 38.5 °F /  3.6 °C 38.2 °F /  3.4 °C 30.33in /  1027hPa West 1mph /  1.6km/h 3mph /  4.8km/h 99% 0.00in /  0mm 0 W/m2
03:10 38.3 °F /  3.5 °C 38 °F /  3.3 °C 30.33in /  1027hPa NNW 1mph /  1.6km/h 2mph /  3.2km/h 99% 0.00in /  0mm 0 W/m2
03:20 38.1 °F /  3.4 °C 37.9 °F /  3.3 °C 30.32in /  1026.6hPa SSE 2mph /  3.2km/h 4mph /  6.4km/h 99% 0.00in /  0mm 0 W/m2
03:30 37.9 °F /  3.3 °C 37.7 °F /  3.2 °C 30.32in /  1026.6hPa Calm   3mph /  4.8km/h 99% 0.00in /  0mm 0 W/m2
03:40 37.9 °F /  3.3 °C 37.7 °F /  3.2 °C 30.32in /  1026.6hPa Calm   2mph /  3.2km/h 99% 0.00in /  0mm 0 W/m2
03:50 37.8 °F /  3.2 °C 37.6 °F /  3.1 °C 30.32in /  1026.6hPa Calm   2mph /  3.2km/h 99% 0.00in /  0mm 0 W/m2
04:00 37.8 °F /  3.2 °C 37.5 °F /  3.1 °C 30.31in /  1026.3hPa Calm   2mph /  3.2km/h 99% 0.00in /  0mm 0 W/m2
04:10 37.7 °F /  3.2 °C 37.4 °F /  3 °C 30.31in /  1026.3hPa SW 1mph /  1.6km/h 4mph /  6.4km/h 99% 0.00in /  0mm 0 W/m2
04:20 37.6 °F /  3.1 °C 37.3 °F /  2.9 °C 30.31in /  1026.3hPa ENE 2mph /  3.2km/h 4mph /  6.4km/h 99% 0.00in /  0mm 0 W/m2
04:30 37.6 °F /  3.1 °C 37.3 °F /  2.9 °C 30.31in /  1026.3hPa ENE 1mph /  1.6km/h 4mph /  6.4km/h 99% 0.00in /  0mm 0 W/m2
04:40 37.6 °F /  3.1 °C 37.3 °F /  2.9 °C 30.31in /  1026.3hPa SSW 1mph /  1.6km/h 4mph /  6.4km/h 99% 0.00in /  0mm 0 W/m2
04:50 37.4 °F /  3 °C 37.1 °F /  2.8 °C 30.31in /  1026.3hPa South 1mph /  1.6km/h 2mph /  3.2km/h 99% 0.00in /  0mm 0 W/m2
05:00 37.4 °F /  3 °C 37.1 °F /  2.8 °C 30.31in /  1026.3hPa NE 1mph /  1.6km/h 3mph /  4.8km/h 99% 0.00in /  0mm 0 W/m2
05:10 37.4 °F /  3 °C 37.1 °F /  2.8 °C 30.31in /  1026.3hPa NE 1mph /  1.6km/h 3mph /  4.8km/h 99% 0.00in /  0mm 0 W/m2
05:20 37.4 °F /  3 °C 37.1 °F /  2.8 °C 30.31in /  1026.3hPa Calm   4mph /  6.4km/h 99% 0.00in /  0mm 0 W/m2
05:30 37.4 °F /  3 °C 37.1 °F /  2.8 °C 30.30in /  1026hPa SE 2mph /  3.2km/h 4mph /  6.4km/h 99% 0.00in /  0mm 0 W/m2
05:40 37.6 °F /  3.1 °C 37.3 °F /  2.9 °C 30.31in /  1026.3hPa NE 1mph /  1.6km/h 4mph /  6.4km/h 99% 0.00in /  0mm 0 W/m2
05:50 37.4 °F /  3 °C 37.1 °F /  2.8 °C 30.30in /  1026hPa North 1mph /  1.6km/h 5mph /  8km/h 99% 0.00in /  0mm 0 W/m2
06:00 37.6 °F /  3.1 °C 37.3 °F /  2.9 °C 30.31in /  1026.3hPa Calm   4mph /  6.4km/h 99% 0.00in /  0mm 0 W/m2
06:10 37.8 °F /  3.2 °C 37.5 °F /  3.1 °C 30.30in /  1026hPa SSE 1mph /  1.6km/h 3mph /  4.8km/h 99% 0.00in /  0mm 0 W/m2
06:20 37.8 °F /  3.2 °C 37.5 °F /  3.1 °C 30.31in /  1026.3hPa NE 1mph /  1.6km/h 3mph /  4.8km/h 99% 0.00in /  0mm 0 W/m2
06:30 37.8 °F /  3.2 °C 37.5 °F /  3.1 °C 30.31in /  1026.3hPa NNE 1mph /  1.6km/h 4mph /  6.4km/h 99% 0.04in /  1.02mm 0 W/m2
06:40 37.9 °F /  3.3 °C 37.7 °F /  3.2 °C 30.31in /  1026.3hPa WSW 3mph /  4.8km/h 6mph /  9.7km/h 99% 0.00in /  0mm 0 W/m2
06:50 38.1 °F /  3.4 °C 37.9 °F /  3.3 °C 30.31in /  1026.3hPa SW 1mph /  1.6km/h 5mph /  8km/h 99% 0.00in /  0mm 0 W/m2
07:00 38.1 °F /  3.4 °C 37.9 °F /  3.3 °C 30.31in /  1026.3hPa WSW 3mph /  4.8km/h 9mph /  14.5km/h 99% 0.00in /  0mm 0 W/m2
07:10 38.3 °F /  3.5 °C 38 °F /  3.3 °C 30.31in /  1026.3hPa SW 3mph /  4.8km/h 5mph /  8km/h 99% 0.00in /  0mm 2 W/m2
07:20 38.7 °F /  3.7 °C 38.4 °F /  3.6 °C 30.31in /  1026.3hPa West 5mph /  8km/h 14mph /  22.5km/h 99% 0.00in /  0mm 6 W/m2
07:30 39 °F /  3.9 °C 38.8 °F /  3.8 °C 30.30in /  1026hPa WSW 7mph /  11.3km/h 14mph /  22.5km/h 99% 0.00in /  0mm 12 W/m2
07:40 39.4 °F /  4.1 °C 39.1 °F /  3.9 °C 30.30in /  1026hPa West 6mph /  9.7km/h 13mph /  20.9km/h 99% 0.00in /  0mm 17 W/m2
07:50 39.6 °F /  4.2 °C 39 °F /  3.9 °C 30.30in /  1026hPa WSW 8mph /  12.9km/h 14mph /  22.5km/h 98% 0.00in /  0mm 23 W/m2
08:00 39.7 °F /  4.3 °C 39.2 °F /  4 °C 30.30in /  1026hPa WSW 5mph /  8km/h 13mph /  20.9km/h 98% 0.00in /  0mm 30 W/m2
08:10 40.1 °F /  4.5 °C 39.1 °F /  3.9 °C 30.30in /  1026hPa WSW 2mph /  3.2km/h 7mph /  11.3km/h 96% 0.00in /  0mm 92 W/m2
08:20 40.3 °F /  4.6 °C 39.2 °F /  4 °C 30.30in /  1026hPa SW 2mph /  3.2km/h 7mph /  11.3km/h 96% 0.00in /  0mm 51 W/m2
08:30 40.5 °F /  4.7 °C 39.4 °F /  4.1 °C 30.29in /  1025.6hPa SW 6mph /  9.7km/h 11mph /  17.7km/h 96% 0.00in /  0mm 24 W/m2
08:40 40.6 °F /  4.8 °C 39.5 °F /  4.2 °C 30.29in /  1025.6hPa WSW 6mph /  9.7km/h 12mph /  19.3km/h 96% 0.00in /  0mm 36 W/m2
08:50 40.6 °F /  4.8 °C 39.3 °F /  4.1 °C 30.28in /  1025.3hPa WSW 9mph /  14.5km/h 13mph /  20.9km/h 95% 0.00in /  0mm 47 W/m2
Knjazevac, Serbia
Compliments of Weather Underground - 2 mb